Time;durP1;ratioP1;P1;durP2;ratioP2;P2;SDS_P1;SDS_P2;PMS_P1;PMS_P2;Temp;Humidity;BMP_temperature;BMP_pressure;BME280_temperature;BME280_humidity;BME280_pressure;Samples;Min_cycle;Max_cycle;Signal;HPM_P1;HPM_P2
2022/01/03 00:02:08;;;;;;;6.30;6.00;;;11.20;73.60;;;;;;5053345;28;20208;-61
2022/01/03 00:04:37;;;;;;;6.60;6.10;;;11.30;73.30;;;;;;5053292;28;20208;-59
2022/01/03 00:07:04;;;;;;;6.63;6.03;;;11.30;72.90;;;;;;5053318;28;20670;-58
2022/01/03 00:09:33;;;;;;;6.03;5.72;;;11.50;71.80;;;;;;5053405;28;20216;-61
2022/01/03 00:12:00;;;;;;;6.20;5.80;;;11.50;71.30;;;;;;5051844;28;20243;-58
2022/01/03 00:14:28;;;;;;;6.90;6.50;;;11.50;71.20;;;;;;5053176;28;20291;-60
2022/01/03 00:16:55;;;;;;;6.63;6.32;;;11.60;70.80;;;;;;5052988;28;20260;-60
2022/01/03 00:19:22;;;;;;;6.70;6.30;;;11.70;70.30;;;;;;5053033;28;20236;-61
2022/01/03 00:21:53;;;;;;;6.82;6.30;;;11.70;70.30;;;;;;5053033;28;20295;-56
2022/01/03 00:24:25;;;;;;;7.45;6.30;;;11.70;70.00;;;;;;5053274;28;20202;-58
2022/01/03 00:27:00;;;;;;;6.65;6.30;;;11.70;69.90;;;;;;5051652;28;20211;-56
2022/01/03 00:29:36;;;;;;;6.30;5.80;;;11.80;69.90;;;;;;5052961;28;20674;-61
2022/01/03 00:32:09;;;;;;;6.65;6.15;;;11.70;69.60;;;;;;5052803;28;20205;-61
2022/01/03 00:34:37;;;;;;;6.78;6.18;;;11.80;69.60;;;;;;5053033;28;20585;-61
2022/01/03 00:37:06;;;;;;;6.35;5.93;;;11.80;69.60;;;;;;5052999;28;20578;-61
2022/01/03 00:39:33;;;;;;;6.30;6.00;;;11.80;69.40;;;;;;5052865;28;20589;-55
2022/01/03 00:42:02;;;;;;;7.10;6.60;;;11.80;69.50;;;;;;5051360;28;20574;-55
2022/01/03 00:44:29;;;;;;;7.57;6.28;;;11.80;69.50;;;;;;5052880;28;20626;-61
2022/01/03 00:46:57;;;;;;;6.93;6.38;;;11.90;69.40;;;;;;5052697;28;20216;-59
2022/01/03 00:49:24;;;;;;;6.70;6.30;;;11.80;69.30;;;;;;5052786;28;20206;-61
2022/01/03 00:51:51;;;;;;;6.70;6.20;;;11.80;69.40;;;;;;5052700;28;20205;-62
2022/01/03 00:54:18;;;;;;;7.03;6.55;;;11.80;69.40;;;;;;5052745;28;20563;-58
2022/01/03 00:56:47;;;;;;;6.60;6.20;;;11.80;69.50;;;;;;5051302;28;20675;-62
2022/01/03 00:59:17;;;;;;;6.43;5.93;;;11.70;69.60;;;;;;5052652;28;20225;-61
2022/01/03 01:01:47;;;;;;;9.88;6.47;;;11.70;69.80;;;;;;5052638;28;20212;-60
2022/01/03 01:04:16;;;;;;;7.60;7.00;;;11.60;70.00;;;;;;5052476;28;20237;-61
2022/01/03 01:06:43;;;;;;;6.50;6.20;;;11.70;69.90;;;;;;5052700;28;20201;-61
2022/01/03 01:09:14;;;;;;;6.90;6.43;;;11.60;69.90;;;;;;5052498;28;20205;-59
2022/01/03 01:11:42;;;;;;;6.43;6.03;;;11.60;70.20;;;;;;5051066;28;20595;-59
2022/01/03 01:14:10;;;;;;;6.72;6.32;;;11.70;70.20;;;;;;5052678;28;20206;-59
2022/01/03 01:16:38;;;;;;;7.07;6.47;;;11.70;69.80;;;;;;5052457;28;20312;-55
2022/01/03 01:19:05;;;;;;;7.03;6.43;;;11.70;70.00;;;;;;5052229;28;20738;-59
2022/01/03 01:21:33;;;;;;;6.60;6.20;;;11.70;69.60;;;;;;5052433;28;20296;-58
2022/01/03 01:24:00;;;;;;;7.93;5.95;;;11.70;69.60;;;;;;5052286;28;20296;-61
2022/01/03 01:29:12;;;;;;;6.20;5.70;;;11.60;69.80;;;;;;5052363;28;20207;-62
2022/01/03 01:31:45;;;;;;;6.43;5.93;;;11.60;69.90;;;;;;5052488;28;20216;-59
2022/01/03 01:34:18;;;;;;;6.75;6.35;;;11.60;70.00;;;;;;5055536;28;20565;-59
2022/01/03 01:36:47;;;;;;;7.00;6.40;;;11.60;70.30;;;;;;5056192;28;20562;-61
2022/01/03 01:39:16;;;;;;;6.25;5.85;;;11.60;70.20;;;;;;5055989;28;20586;-60
2022/01/03 01:41:45;;;;;;;6.50;6.10;;;11.60;70.30;;;;;;5054962;28;20201;-61
2022/01/03 01:44:13;;;;;;;6.32;5.90;;;11.60;70.30;;;;;;5056215;28;20656;-60
2022/01/03 01:46:46;;;;;;;6.20;5.90;;;11.60;70.50;;;;;;5056033;28;20205;-60
2022/01/03 01:49:17;;;;;;;7.07;6.10;;;11.60;70.50;;;;;;5055855;28;20209;-60
2022/01/03 01:51:46;;;;;;;6.60;6.20;;;11.50;70.70;;;;;;5056096;28;20201;-57
2022/01/03 01:54:16;;;;;;;6.22;5.82;;;11.50;70.80;;;;;;5055884;28;20220;-60
2022/01/03 01:56:55;;;;;;;6.60;5.82;;;11.50;71.00;;;;;;5054675;28;20201;-59
2022/01/03 01:59:29;;;;;;;7.05;6.45;;;11.50;71.10;;;;;;5055546;28;20232;-57
2022/01/03 02:02:04;;;;;;;7.00;6.50;;;11.50;71.10;;;;;;5055799;28;20205;-61
2022/01/03 02:04:40;;;;;;;6.68;6.25;;;11.40;71.40;;;;;;5055753;28;20207;-63
2022/01/03 02:07:25;;;;;;;6.43;5.90;;;11.30;71.70;;;;;;5055593;28;20197;-58
2022/01/03 02:10:04;;;;;;;6.90;6.28;;;11.30;72.10;;;;;;5055394;28;20201;-57
2022/01/03 02:12:35;;;;;;;6.22;5.82;;;11.30;72.30;;;;;;5055170;28;20697;-56
2022/01/03 02:15:03;;;;;;;6.10;5.60;;;11.30;72.50;;;;;;5055420;28;20212;-58
2022/01/03 02:17:31;;;;;;;6.10;5.80;;;11.30;72.50;;;;;;5055241;28;20206;-60
2022/01/03 02:20:05;;;;;;;5.63;5.43;;;11.30;72.60;;;;;;5055274;28;20239;-56
2022/01/03 02:22:32;;;;;;;7.43;6.78;;;11.50;72.20;;;;;;5055467;28;20565;-59
2022/01/03 02:24:59;;;;;;;6.35;5.75;;;11.40;72.50;;;;;;5055212;28;20688;-57
2022/01/03 02:27:26;;;;;;;6.43;6.03;;;11.30;72.70;;;;;;5054008;28;20212;-58
2022/01/03 02:29:54;;;;;;;6.50;5.90;;;11.30;73.00;;;;;;5055182;28;20208;-60
2022/01/03 02:32:20;;;;;;;6.30;5.95;;;11.30;72.90;;;;;;5054910;28;20205;-60
2022/01/03 02:34:48;;;;;;;6.20;5.80;;;11.20;73.10;;;;;;5054987;28;20303;-57
2022/01/03 02:37:16;;;;;;;6.75;6.15;;;11.30;72.90;;;;;;5055137;28;20209;-59
2022/01/03 02:39:44;;;;;;;7.28;5.78;;;11.20;73.10;;;;;;5054963;28;20311;-59
2022/01/03 02:42:11;;;;;;;6.25;5.80;;;11.20;73.10;;;;;;5053630;28;20201;-58
2022/01/03 02:44:38;;;;;;;6.00;5.70;;;11.30;73.00;;;;;;5055121;28;20208;-55
2022/01/03 02:47:05;;;;;;;6.18;5.80;;;11.30;73.00;;;;;;5054856;28;20229;-55
2022/01/03 02:49:32;;;;;;;7.00;6.30;;;11.20;73.20;;;;;;5054675;28;20219;-60
2022/01/03 02:51:59;;;;;;;6.40;5.90;;;11.10;73.60;;;;;;5054834;28;20561;-58
2022/01/03 02:54:27;;;;;;;5.90;5.60;;;11.10;73.60;;;;;;5054736;28;20300;-60
2022/01/03 02:56:55;;;;;;;5.70;5.40;;;11.10;73.70;;;;;;5053398;28;20212;-58
2022/01/03 02:59:21;;;;;;;6.22;5.80;;;11.20;73.40;;;;;;5054635;28;20239;-56
2022/01/03 03:01:49;;;;;;;6.55;6.15;;;11.20;73.50;;;;;;5054606;28;20208;-59
2022/01/03 03:04:16;;;;;;;5.95;5.65;;;11.20;73.30;;;;;;5054632;28;20212;-59
2022/01/03 03:06:43;;;;;;;6.53;5.97;;;11.10;73.40;;;;;;5054468;28;20205;-55
2022/01/03 03:09:11;;;;;;;6.00;5.70;;;11.10;73.20;;;;;;5054433;28;20206;-57
2022/01/03 03:11:39;;;;;;;6.20;5.80;;;11.20;73.20;;;;;;5053146;28;20240;-56
2022/01/03 03:14:06;;;;;;;5.55;5.15;;;11.20;73.00;;;;;;5054418;28;20210;-59
2022/01/03 03:16:35;;;;;;;6.70;6.10;;;11.20;73.00;;;;;;5054149;28;20228;-60
2022/01/03 03:19:02;;;;;;;6.20;5.70;;;11.10;73.10;;;;;;5054037;28;20239;-58
2022/01/03 03:21:30;;;;;;;6.05;5.75;;;11.10;73.20;;;;;;5054405;28;20205;-58
2022/01/03 03:23:57;;;;;;;6.80;6.20;;;11.10;73.00;;;;;;5054291;28;20358;-58
2022/01/03 03:26:24;;;;;;;6.45;5.95;;;11.10;73.10;;;;;;5053016;28;20214;-56
2022/01/03 03:28:53;;;;;;;6.45;6.15;;;11.00;73.10;;;;;;5053960;28;20212;-57
2022/01/03 03:31:21;;;;;;;6.15;5.85;;;11.00;73.10;;;;;;5054104;28;20254;-59
2022/01/03 03:33:48;;;;;;;6.47;5.85;;;11.10;72.90;;;;;;5053877;28;20205;-59
2022/01/03 03:36:14;;;;;;;5.90;5.60;;;11.10;72.80;;;;;;5053956;28;20201;-59
2022/01/03 03:38:42;;;;;;;7.00;5.65;;;11.00;72.70;;;;;;5053883;28;20300;-58
2022/01/03 03:41:09;;;;;;;6.65;6.00;;;11.10;72.80;;;;;;5052568;28;20224;-57
2022/01/03 03:43:35;;;;;;;7.00;6.40;;;11.10;72.50;;;;;;5053733;28;20224;-58
2022/01/03 03:46:04;;;;;;;6.35;5.80;;;11.20;72.40;;;;;;5053856;28;20598;-58
2022/01/03 03:48:31;;;;;;;6.13;5.72;;;11.10;72.10;;;;;;5053524;28;20205;-55
2022/01/03 03:50:58;;;;;;;6.35;5.85;;;11.20;72.00;;;;;;5053718;28;20209;-58
2022/01/03 03:53:26;;;;;;;5.85;5.50;;;11.10;71.70;;;;;;5053711;28;20220;-58
2022/01/03 03:55:53;;;;;;;5.90;5.60;;;11.10;71.70;;;;;;5052038;28;20209;-58
2022/01/03 03:58:20;;;;;;;6.05;5.55;;;11.10;71.50;;;;;;5053473;28;20201;-58
2022/01/03 04:00:47;;;;;;;6.15;5.70;;;11.00;71.50;;;;;;5053515;28;20240;-55
2022/01/03 04:03:15;;;;;;;5.70;5.30;;;11.00;71.30;;;;;;5053319;28;20664;-56
2022/01/03 04:05:42;;;;;;;6.20;5.90;;;11.00;71.40;;;;;;5053574;28;20563;-58
2022/01/03 04:08:09;;;;;;;6.07;5.72;;;10.90;71.40;;;;;;5053362;28;20295;-57
2022/01/03 04:10:35;;;;;;;4.68;4.07;;;10.90;71.70;;;;;;5052035;28;20231;-58
2022/01/03 04:13:02;;;;;;;6.97;3.95;;;10.90;71.40;;;;;;5053438;28;20201;-60
2022/01/03 04:15:29;;;;;;;5.90;5.45;;;10.90;71.40;;;;;;5053259;28;20550;-56
2022/01/03 04:17:56;;;;;;;5.82;5.43;;;10.90;71.40;;;;;;5053044;28;20209;-57
2022/01/03 04:20:26;;;;;;;6.03;5.40;;;11.00;71.30;;;;;;5053145;28;20233;-58
2022/01/03 04:22:52;;;;;;;5.82;5.38;;;10.90;71.40;;;;;;5053257;28;20209;-58
2022/01/03 04:25:19;;;;;;;4.80;4.35;;;10.90;71.70;;;;;;5051956;28;20241;-58
2022/01/03 04:27:48;;;;;;;5.93;5.63;;;11.00;71.50;;;;;;5053116;28;20207;-58
2022/01/03 04:30:15;;;;;;;6.15;5.65;;;10.90;71.70;;;;;;5053081;28;20263;-56
2022/01/03 04:32:42;;;;;;;4.97;4.68;;;10.80;72.00;;;;;;5052871;28;20215;-59
2022/01/03 04:35:09;;;;;;;6.47;5.93;;;10.80;72.10;;;;;;5052956;28;20240;-57
2022/01/03 04:37:37;;;;;;;6.40;6.00;;;10.80;72.30;;;;;;5052981;28;20248;-57
2022/01/03 04:40:05;;;;;;;5.20;4.70;;;10.80;72.60;;;;;;5052510;28;20239;-57
2022/01/03 04:42:32;;;;;;;5.55;5.05;;;10.80;72.70;;;;;;5052374;28;20211;-59
2022/01/03 04:45:00;;;;;;;5.85;5.35;;;10.80;72.80;;;;;;5052908;28;20208;-60
2022/01/03 04:47:27;;;;;;;5.43;5.13;;;10.80;73.00;;;;;;5052791;28;20205;-59
2022/01/03 04:49:54;;;;;;;5.97;5.68;;;10.90;73.10;;;;;;5052768;28;20204;-59
2022/01/03 04:52:20;;;;;;;5.25;4.85;;;10.90;73.20;;;;;;5052679;28;20207;-58
2022/01/03 04:54:49;;;;;;;4.97;4.47;;;10.80;73.70;;;;;;5052781;28;20288;-59
2022/01/03 04:57:15;;;;;;;5.25;4.85;;;10.70;74.40;;;;;;5051489;28;20229;-58
2022/01/03 04:59:42;;;;;;;6.95;6.28;;;10.60;74.20;;;;;;5052699;28;20312;-60
2022/01/03 05:02:09;;;;;;;7.47;6.53;;;10.50;75.10;;;;;;5052765;28;20388;-57
2022/01/03 05:04:36;;;;;;;6.50;6.10;;;10.30;75.30;;;;;;5052508;28;20244;-58
2022/01/03 05:07:04;;;;;;;7.82;5.30;;;10.30;76.00;;;;;;5052509;28;20208;-60
2022/01/03 05:09:31;;;;;;;6.10;5.65;;;10.30;75.50;;;;;;5056877;28;20284;-59
2022/01/03 05:11:59;;;;;;;5.85;5.45;;;10.50;75.70;;;;;;5054068;28;20319;-59
2022/01/03 05:14:26;;;;;;;6.00;5.50;;;10.60;75.70;;;;;;5055200;28;20721;-59
2022/01/03 05:16:53;;;;;;;7.47;4.53;;;10.70;75.80;;;;;;5055171;28;20232;-58
2022/01/03 05:19:20;;;;;;;8.40;5.70;;;11.00;75.20;;;;;;5054883;28;20209;-57
2022/01/03 05:21:47;;;;;;;7.82;5.18;;;11.10;76.20;;;;;;5055249;28;20309;-59
2022/01/03 05:24:14;;;;;;;5.60;5.20;;;11.10;76.70;;;;;;5055155;28;20292;-57
2022/01/03 05:26:40;;;;;;;5.78;4.82;;;10.80;77.00;;;;;;5053859;28;20206;-59
2022/01/03 05:29:09;;;;;;;6.93;5.35;;;10.80;77.10;;;;;;5055018;28;20204;-59
2022/01/03 05:31:36;;;;;;;6.50;5.90;;;10.60;75.70;;;;;;5055036;28;20204;-57
2022/01/03 05:34:03;;;;;;;8.85;5.80;;;10.50;76.30;;;;;;5054883;28;20205;-60
2022/01/03 05:36:30;;;;;;;6.25;5.60;;;10.60;75.50;;;;;;5054965;28;20236;-59
2022/01/03 05:38:57;;;;;;;5.28;4.88;;;10.90;75.60;;;;;;5054917;28;20625;-58
2022/01/03 05:41:24;;;;;;;6.10;4.63;;;11.00;73.90;;;;;;5053454;28;20229;-58
2022/01/03 05:43:52;;;;;;;5.03;4.57;;;11.10;74.20;;;;;;5054912;28;20213;-60
2022/01/03 05:46:20;;;;;;;5.57;4.30;;;11.10;73.80;;;;;;5054773;28;20211;-60
2022/01/03 05:48:47;;;;;;;5.38;4.85;;;11.10;73.80;;;;;;5054435;28;20292;-59
2022/01/03 05:51:14;;;;;;;6.32;4.63;;;11.20;73.60;;;;;;5054716;28;20210;-60
2022/01/03 05:53:40;;;;;;;4.63;4.30;;;11.20;73.00;;;;;;5054583;28;20212;-59
2022/01/03 05:56:07;;;;;;;5.22;4.82;;;11.10;73.30;;;;;;5053350;28;20208;-58
2022/01/03 05:58:35;;;;;;;6.75;4.68;;;11.10;72.80;;;;;;5054616;28;20603;-59
2022/01/03 06:01:02;;;;;;;5.63;5.18;;;11.10;73.40;;;;;;5054486;28;20231;-57
2022/01/03 06:03:35;;;;;;;7.60;4.85;;;11.20;73.00;;;;;;5054284;28;20428;-59
2022/01/03 06:06:18;;;;;;;7.10;6.60;;;11.20;72.70;;;;;;5054360;28;20198;-55
2022/01/03 06:08:45;;;;;;;5.10;4.70;;;11.10;72.80;;;;;;5054604;28;20201;-55
2022/01/03 06:11:11;;;;;;;6.23;5.73;;;11.00;72.20;;;;;;5015528;28;1094334;-60
2022/01/03 06:13:38;;;;;;;5.97;5.47;;;10.90;72.40;;;;;;5055517;28;20239;-59
2022/01/03 06:16:05;;;;;;;4.53;4.13;;;10.90;72.70;;;;;;5055400;28;20204;-59
2022/01/03 06:18:34;;;;;;;6.75;6.30;;;10.90;72.50;;;;;;5055013;28;20206;-59
2022/01/03 06:21:01;;;;;;;6.57;5.97;;;10.80;73.10;;;;;;5055314;28;20646;-57
2022/01/03 06:23:28;;;;;;;5.90;5.47;;;10.80;72.90;;;;;;5055246;28;20682;-58
2022/01/03 06:25:55;;;;;;;7.55;6.50;;;10.80;72.40;;;;;;5054086;28;20557;-60
2022/01/03 06:28:22;;;;;;;5.55;5.03;;;10.80;72.90;;;;;;5055142;28;20632;-56
2022/01/03 06:30:48;;;;;;;6.97;6.38;;;10.90;73.40;;;;;;5055291;28;20678;-57
2022/01/03 06:33:15;;;;;;;9.52;6.10;;;10.80;73.00;;;;;;5055219;28;20296;-59
2022/01/03 06:35:43;;;;;;;7.03;5.43;;;10.80;72.90;;;;;;5055148;28;20285;-59
2022/01/03 06:38:10;;;;;;;7.28;6.75;;;10.90;72.50;;;;;;5055027;28;20660;-55
2022/01/03 06:40:37;;;;;;;5.95;5.68;;;10.80;73.00;;;;;;5053681;28;20321;-54
2022/01/03 06:43:04;;;;;;;6.53;6.10;;;10.80;73.50;;;;;;5054864;28;20292;-57
2022/01/03 06:45:31;;;;;;;6.80;6.30;;;10.90;72.40;;;;;;5054978;28;20224;-59
2022/01/03 06:47:58;;;;;;;4.45;4.15;;;10.90;72.40;;;;;;5054666;28;20205;-57
2022/01/03 06:50:28;;;;;;;6.28;5.78;;;11.00;72.80;;;;;;5054882;28;20209;-59
2022/01/03 06:52:56;;;;;;;6.32;6.00;;;11.00;73.30;;;;;;5054919;28;20233;-56
2022/01/03 06:55:24;;;;;;;7.28;6.72;;;10.90;73.70;;;;;;5053348;28;20616;-55
2022/01/03 06:57:51;;;;;;;4.03;3.55;;;11.00;74.00;;;;;;5054664;28;20587;-57
2022/01/03 07:00:18;;;;;;;5.40;5.05;;;10.80;74.80;;;;;;5054649;28;20247;-55
2022/01/03 07:02:45;;;;;;;8.45;5.80;;;10.70;73.80;;;;;;5054731;28;20227;-58
2022/01/03 07:05:13;;;;;;;6.97;6.50;;;10.50;74.40;;;;;;5054430;28;20392;-58
2022/01/03 07:07:41;;;;;;;6.75;5.90;;;10.30;75.20;;;;;;5054539;28;20223;-55
2022/01/03 07:10:11;;;;;;;6.75;5.80;;;10.30;75.80;;;;;;5053458;28;20560;-55
2022/01/03 07:12:38;;;;;;;6.13;5.65;;;10.30;76.50;;;;;;5054482;28;20233;-58
2022/01/03 07:20:35;;;;;;;8.60;8.02;;;10.40;77.70;;;;;;5054403;28;20240;-54
2022/01/03 07:23:02;;;;;;;8.70;8.07;;;10.20;77.70;;;;;;5054214;28;20211;-54
2022/01/03 07:25:31;;;;;;;7.95;5.43;;;10.30;79.00;;;;;;5052801;28;20201;-55
2022/01/03 07:27:58;;;;;;;7.55;6.95;;;10.20;79.30;;;;;;5054152;28;20630;-55
2022/01/03 07:30:25;;;;;;;7.40;6.80;;;10.20;79.70;;;;;;5053343;28;20236;-55
2022/01/03 07:32:52;;;;;;;6.63;5.70;;;10.10;80.60;;;;;;5053963;28;20300;-54
2022/01/03 07:35:19;;;;;;;5.80;5.40;;;10.10;81.30;;;;;;5053735;28;20240;-55
2022/01/03 07:37:45;;;;;;;6.20;5.78;;;10.00;82.00;;;;;;5053904;28;20202;-58
2022/01/03 07:40:13;;;;;;;7.30;5.20;;;9.90;82.00;;;;;;5052624;28;20301;-55
2022/01/03 07:42:43;;;;;;;6.63;6.05;;;9.60;82.60;;;;;;5053866;28;20198;-58
2022/01/03 07:45:11;;;;;;;6.55;5.07;;;9.40;83.30;;;;;;5053857;28;20240;-57
2022/01/03 07:47:38;;;;;;;7.10;6.50;;;9.30;82.80;;;;;;5053703;28;20216;-58
2022/01/03 07:50:07;;;;;;;6.00;5.68;;;9.20;83.50;;;;;;5053699;28;20201;-57
2022/01/03 07:52:34;;;;;;;7.38;6.68;;;9.10;83.30;;;;;;5053743;28;20201;-56
2022/01/03 07:55:01;;;;;;;8.88;8.20;;;9.10;84.10;;;;;;5053591;28;20201;-56
2022/01/03 07:57:28;;;;;;;8.10;7.60;;;9.20;84.70;;;;;;5052158;28;20209;-55
2022/01/03 07:59:56;;;;;;;6.72;6.07;;;9.10;85.30;;;;;;5053683;28;20300;-56
2022/01/03 08:02:23;;;;;;;9.38;8.68;;;9.10;85.50;;;;;;5053314;28;20240;-56
2022/01/03 08:04:50;;;;;;;8.25;7.60;;;9.20;85.70;;;;;;5053363;28;20219;-59
2022/01/03 08:07:18;;;;;;;8.27;7.53;;;9.20;86.00;;;;;;5053391;28;20609;-58
2022/01/03 08:09:44;;;;;;;7.90;7.40;;;9.10;86.40;;;;;;5053285;28;20204;-58
2022/01/03 08:12:12;;;;;;;8.38;7.50;;;9.00;86.40;;;;;;5051957;28;20822;-58
2022/01/03 08:14:38;;;;;;;8.07;7.40;;;9.00;86.60;;;;;;5053212;28;20283;-58
2022/01/03 08:17:07;;;;;;;7.97;7.30;;;8.90;86.70;;;;;;5053186;28;20724;-58
2022/01/03 08:19:33;;;;;;;7.43;6.70;;;8.90;87.10;;;;;;5052975;28;20628;-58
2022/01/03 08:22:00;;;;;;;10.88;6.07;;;8.90;86.80;;;;;;5053125;28;20323;-58
2022/01/03 08:24:27;;;;;;;6.90;6.50;;;8.90;87.50;;;;;;5053272;28;20292;-58
2022/01/03 08:26:55;;;;;;;6.75;6.15;;;8.90;86.20;;;;;;5051912;28;20296;-59
2022/01/03 08:29:22;;;;;;;6.35;5.95;;;8.90;86.70;;;;;;5053070;28;20212;-59
2022/01/03 08:31:49;;;;;;;6.85;6.47;;;8.90;85.20;;;;;;5053121;28;20751;-58
2022/01/03 08:34:18;;;;;;;7.78;6.55;;;8.90;85.70;;;;;;5052750;28;20201;-59
2022/01/03 08:36:45;;;;;;;6.90;6.50;;;9.00;85.60;;;;;;5052879;28;20207;-60
2022/01/03 08:39:12;;;;;;;7.00;6.00;;;9.00;84.80;;;;;;5052884;28;20571;-59
2022/01/03 08:41:39;;;;;;;10.65;7.38;;;9.00;84.30;;;;;;5051342;28;20233;-56
2022/01/03 08:44:06;;;;;;;8.93;5.57;;;9.10;84.20;;;;;;5052756;28;20197;-59
2022/01/03 08:46:33;;;;;;;5.90;5.50;;;9.10;83.50;;;;;;5052756;28;20201;-58
2022/01/03 08:49:00;;;;;;;9.13;5.65;;;9.20;83.80;;;;;;5052668;28;20291;-59
2022/01/03 08:51:28;;;;;;;7.00;6.50;;;9.20;82.90;;;;;;5052805;28;20544;-57
2022/01/03 08:53:55;;;;;;;7.75;7.10;;;9.30;83.00;;;;;;5052823;28;20205;-60
2022/01/03 08:56:22;;;;;;;7.50;6.97;;;9.30;82.50;;;;;;5051275;28;20202;-56
2022/01/03 08:58:49;;;;;;;7.10;6.70;;;9.40;81.80;;;;;;5052589;28;20205;-56
2022/01/03 09:01:16;;;;;;;6.72;6.32;;;9.40;82.00;;;;;;5052685;28;20587;-57
2022/01/03 09:03:43;;;;;;;8.57;6.90;;;9.40;82.00;;;;;;5052505;28;20283;-59
2022/01/03 09:06:10;;;;;;;5.30;4.85;;;9.40;81.10;;;;;;5052581;28;20209;-56
2022/01/03 09:08:38;;;;;;;5.30;5.00;;;9.40;80.80;;;;;;5052678;28;20292;-59
2022/01/03 09:11:05;;;;;;;6.00;5.45;;;9.40;80.80;;;;;;5051125;28;20233;-56
2022/01/03 09:13:32;;;;;;;5.90;4.45;;;9.50;81.70;;;;;;5052533;28;20228;-59
2022/01/03 09:16:04;;;;;;;5.47;5.15;;;9.60;80.60;;;;;;5052582;28;20208;-58
2022/01/03 09:18:31;;;;;;;5.88;5.40;;;9.70;80.50;;;;;;5052330;28;20205;-59
2022/01/03 09:20:58;;;;;;;6.35;5.30;;;9.80;79.30;;;;;;5052349;28;20225;-59
2022/01/03 09:23:30;;;;;;;5.38;4.97;;;9.70;78.90;;;;;;5052526;28;20239;-57
2022/01/03 09:28:52;;;;;;;7.97;5.03;;;9.80;79.00;;;;;;5052558;28;20208;-56
2022/01/03 09:31:22;;;;;;;6.45;5.18;;;9.90;78.10;;;;;;5052474;28;20209;-58
2022/01/03 09:33:49;;;;;;;6.03;4.80;;;10.00;77.40;;;;;;5052368;28;20202;-56
2022/01/03 09:36:16;;;;;;;6.50;6.20;;;10.00;77.10;;;;;;5052234;28;20205;-57
2022/01/03 09:38:43;;;;;;;4.22;4.00;;;10.10;77.40;;;;;;5052358;28;20212;-57
2022/01/03 09:41:13;;;;;;;5.45;4.30;;;10.20;77.20;;;;;;5051002;28;20710;-53
2022/01/03 09:43:47;;;;;;;5.60;5.30;;;10.30;76.40;;;;;;5052307;28;20205;-57
2022/01/03 09:46:18;;;;;;;6.35;5.00;;;10.30;75.70;;;;;;5052447;28;20197;-57
2022/01/03 09:48:51;;;;;;;5.30;4.72;;;10.30;76.20;;;;;;5051993;28;20243;-57
2022/01/03 09:51:19;;;;;;;6.15;5.65;;;10.30;75.50;;;;;;5052303;28;20201;-54
2022/01/03 09:53:47;;;;;;;5.93;5.38;;;10.30;75.30;;;;;;5053361;28;20202;-58
2022/01/03 09:56:16;;;;;;;6.40;5.50;;;10.40;75.80;;;;;;5054711;28;20300;-57
2022/01/03 09:58:43;;;;;;;8.00;4.80;;;10.40;75.20;;;;;;5055878;28;20216;-57
2022/01/03 10:01:11;;;;;;;5.63;5.22;;;10.50;75.30;;;;;;5055553;28;20225;-57
2022/01/03 10:03:38;;;;;;;6.15;5.55;;;10.40;75.10;;;;;;5055537;28;20207;-57
2022/01/03 10:06:05;;;;;;;5.90;4.70;;;10.50;76.40;;;;;;5055671;28;20212;-58
2022/01/03 10:08:32;;;;;;;6.20;5.60;;;10.40;75.20;;;;;;5055724;28;20235;-57
2022/01/03 10:10:59;;;;;;;8.05;5.88;;;10.40;75.40;;;;;;5054133;28;20239;-55
2022/01/03 10:13:27;;;;;;;7.18;5.00;;;10.60;75.50;;;;;;5055412;28;20311;-56
2022/01/03 10:15:54;;;;;;;5.82;4.95;;;10.70;75.00;;;;;;5055348;28;20201;-57
2022/01/03 10:18:22;;;;;;;6.22;5.80;;;10.60;74.50;;;;;;5055522;28;20305;-57
2022/01/03 10:20:49;;;;;;;5.68;5.28;;;10.50;75.00;;;;;;5055217;28;20279;-56
2022/01/03 10:23:18;;;;;;;6.95;4.35;;;10.50;75.60;;;;;;5055348;28;20225;-58
2022/01/03 10:25:46;;;;;;;7.38;5.60;;;10.60;75.30;;;;;;5053974;28;20201;-57
2022/01/03 10:28:23;;;;;;;7.82;5.90;;;10.60;75.50;;;;;;5055154;28;20201;-57
2022/01/03 10:30:52;;;;;;;5.22;4.22;;;10.50;75.70;;;;;;5055250;28;20197;-56
2022/01/03 10:33:21;;;;;;;5.68;5.30;;;10.40;75.80;;;;;;5055142;28;20311;-56
2022/01/03 10:35:49;;;;;;;6.07;5.55;;;10.50;75.90;;;;;;5055022;28;20208;-60
2022/01/03 10:38:32;;;;;;;6.68;4.68;;;10.50;76.00;;;;;;5055139;28;20201;-54
2022/01/03 10:41:11;;;;;;;5.50;5.20;;;10.50;75.80;;;;;;5053545;28;20578;-58
2022/01/03 10:43:38;;;;;;;5.35;4.85;;;10.50;76.30;;;;;;5055018;28;20205;-61
2022/01/03 10:46:18;;;;;;;6.18;5.05;;;10.60;75.80;;;;;;5055053;28;20204;-54
2022/01/03 10:48:45;;;;;;;4.68;4.28;;;10.60;76.10;;;;;;5054758;28;20215;-58
2022/01/03 10:51:12;;;;;;;5.57;5.28;;;10.70;76.00;;;;;;5054776;28;20205;-57
2022/01/03 10:53:42;;;;;;;6.30;5.90;;;10.70;75.70;;;;;;5054834;28;20211;-59
2022/01/03 10:56:28;;;;;;;6.75;6.05;;;10.80;76.10;;;;;;5053399;28;20212;-56
2022/01/03 10:58:56;;;;;;;6.72;4.03;;;10.80;75.00;;;;;;5054647;28;20213;-57
2022/01/03 11:01:27;;;;;;;4.93;4.50;;;10.70;75.90;;;;;;5054568;28;20226;-54
2022/01/03 11:03:56;;;;;;;5.68;5.18;;;10.80;75.80;;;;;;5054401;28;20207;-57
2022/01/03 11:06:25;;;;;;;5.45;4.95;;;10.90;75.00;;;;;;5053487;28;20223;-54
2022/01/03 11:11:39;;;;;;;6.45;5.82;;;10.90;74.80;;;;;;5053154;28;20286;-56
2022/01/03 11:14:06;;;;;;;5.97;5.60;;;11.00;75.40;;;;;;5054440;28;20212;-56
2022/01/03 11:16:35;;;;;;;8.10;4.90;;;11.10;74.60;;;;;;5054301;28;20205;-55
2022/01/03 11:19:03;;;;;;;6.55;5.93;;;11.00;73.70;;;;;;5054211;28;20209;-55
2022/01/03 11:21:31;;;;;;;5.43;4.95;;;11.00;74.50;;;;;;5054283;28;20232;-54
2022/01/03 11:24:10;;;;;;;5.55;5.20;;;11.00;74.40;;;;;;5054309;28;20732;-53
2022/01/03 11:26:40;;;;;;;5.10;4.80;;;11.00;74.20;;;;;;5052869;28;20212;-56
2022/01/03 11:29:08;;;;;;;5.07;4.80;;;11.00;74.00;;;;;;5054136;28;20206;-55
2022/01/03 11:31:39;;;;;;;6.30;5.70;;;11.10;75.10;;;;;;5054156;28;20564;-56
2022/01/03 11:34:07;;;;;;;5.95;5.53;;;11.20;73.40;;;;;;5053976;28;20247;-54
2022/01/03 11:36:34;;;;;;;5.82;5.32;;;11.20;73.70;;;;;;5053999;28;20204;-54
2022/01/03 11:39:07;;;;;;;4.55;4.15;;;11.10;73.10;;;;;;5053975;28;20208;-58
2022/01/03 11:41:35;;;;;;;6.72;6.30;;;11.10;73.80;;;;;;5052399;28;20233;-55
2022/01/03 11:44:03;;;;;;;8.60;5.88;;;11.10;73.80;;;;;;5053886;28;20233;-54
2022/01/03 11:46:30;;;;;;;6.63;6.20;;;11.20;73.20;;;;;;5053837;28;20207;-55
2022/01/03 11:48:59;;;;;;;4.75;4.35;;;11.30;73.20;;;;;;5053600;28;20620;-54
2022/01/03 11:51:29;;;;;;;5.22;4.93;;;11.30;73.40;;;;;;5053781;28;20223;-54
2022/01/03 11:53:58;;;;;;;5.78;5.30;;;11.20;72.20;;;;;;5053452;28;20212;-55
2022/01/03 11:56:26;;;;;;;9.90;6.55;;;11.20;72.50;;;;;;5052264;28;20205;-53
2022/01/03 11:59:00;;;;;;;5.85;5.40;;;11.30;71.00;;;;;;5053682;28;20202;-55
2022/01/03 12:04:24;;;;;;;6.22;5.50;;;11.20;70.60;;;;;;5053299;28;20208;-54
2022/01/03 12:07:03;;;;;;;5.97;5.63;;;11.10;70.20;;;;;;5053389;28;20201;-60
2022/01/03 12:09:31;;;;;;;6.43;5.80;;;11.10;69.20;;;;;;5053521;28;20201;-56
2022/01/03 12:11:59;;;;;;;5.93;5.63;;;11.00;67.70;;;;;;5051944;28;20237;-57
2022/01/03 12:14:39;;;;;;;6.38;5.95;;;11.00;67.70;;;;;;5053355;28;20197;-55
2022/01/03 12:17:07;;;;;;;5.40;5.00;;;11.00;68.30;;;;;;5052938;28;20201;-56
2022/01/03 12:19:37;;;;;;;5.55;5.05;;;11.20;68.70;;;;;;5052952;28;20581;-60
2022/01/03 12:22:11;;;;;;;6.20;5.55;;;11.20;68.60;;;;;;5053129;28;20229;-53
2022/01/03 12:24:46;;;;;;;5.90;5.60;;;11.20;68.80;;;;;;5053161;28;20201;-55
2022/01/03 12:27:40;;;;;;;6.20;5.82;;;11.20;69.00;;;;;;5051697;28;20201;-53
2022/01/03 12:30:23;;;;;;;5.72;5.43;;;11.20;69.60;;;;;;5053117;28;20249;-54
2022/01/03 12:33:22;;;;;;;5.85;5.45;;;11.20;69.10;;;;;;5053234;28;20243;-56
2022/01/03 12:36:11;;;;;;;6.25;5.85;;;11.20;69.30;;;;;;5052899;28;20671;-58
2022/01/03 12:38:38;;;;;;;4.50;4.20;;;11.30;68.20;;;;;;5053005;28;20656;-54
2022/01/03 12:41:05;;;;;;;6.60;6.03;;;11.10;69.00;;;;;;5051717;28;20232;-56
2022/01/03 12:43:49;;;;;;;6.20;5.80;;;11.10;69.20;;;;;;5052744;28;20265;-57
2022/01/03 12:46:21;;;;;;;5.75;5.45;;;11.10;70.20;;;;;;5052932;28;20201;-58
2022/01/03 12:48:50;;;;;;;6.53;6.03;;;11.10;70.10;;;;;;5052738;28;20698;-54
2022/01/03 12:51:19;;;;;;;5.88;5.53;;;11.20;69.90;;;;;;5052609;28;20228;-55
2022/01/03 12:53:50;;;;;;;6.95;6.35;;;11.20;70.40;;;;;;5052967;28;20275;-57
2022/01/03 12:56:21;;;;;;;5.10;4.70;;;11.10;70.40;;;;;;5051472;28;20244;-54
2022/01/03 12:58:50;;;;;;;4.88;4.00;;;11.20;70.60;;;;;;5052795;28;20205;-58
2022/01/03 13:01:28;;;;;;;4.90;4.57;;;11.30;70.10;;;;;;5052789;28;20757;-54
2022/01/03 13:03:55;;;;;;;6.15;5.85;;;11.40;70.00;;;;;;5052638;28;20228;-53
2022/01/03 13:06:29;;;;;;;6.50;6.10;;;11.30;69.90;;;;;;5052459;28;20208;-58
2022/01/03 13:09:11;;;;;;;5.70;5.20;;;11.30;70.30;;;;;;5052494;28;20731;-57
2022/01/03 13:11:40;;;;;;;6.20;5.90;;;11.20;70.00;;;;;;5050020;28;20264;-55
2022/01/03 13:14:09;;;;;;;6.05;5.70;;;11.30;70.20;;;;;;5052709;28;20328;-54